createdAt,value
2022-12-24T00:01:07.457Z,99708.72
2022-12-24T00:03:35.332Z,99713.91
2022-12-24T00:06:09.919Z,99700.16
2022-12-24T00:08:42.477Z,99700.84
2022-12-24T00:11:09.715Z,99706.06
2022-12-24T00:13:37.063Z,99703.22
2022-12-24T00:16:04.451Z,99706.69
2022-12-24T00:18:31.778Z,99710.25
2022-12-24T00:20:59.047Z,99698.81
2022-12-24T00:23:26.212Z,99713.84
2022-12-24T00:25:53.650Z,99719.16
2022-12-24T00:28:21.611Z,99716.41
2022-12-24T00:30:49.051Z,99724.25
2022-12-24T00:33:22.359Z,99717.22
2022-12-24T00:35:52.989Z,99724.84
2022-12-24T00:38:20.396Z,99718.38
2022-12-24T00:40:47.553Z,99714.72
2022-12-24T00:43:14.768Z,99715.31
2022-12-24T00:45:42.253Z,99718.84
2022-12-24T00:48:09.442Z,99717.38
2022-12-24T00:50:36.646Z,99727.88
2022-12-24T00:53:05.025Z,99724.56
2022-12-24T00:55:32.226Z,99727.38
2022-12-24T00:57:59.386Z,99732.47
2022-12-24T01:00:26.651Z,99730.94
2022-12-24T01:02:54.418Z,99738.16
2022-12-24T01:05:23.096Z,99742.69
2022-12-24T01:07:53.994Z,99742.63
2022-12-24T01:10:21.262Z,99745.03
2022-12-24T01:12:48.485Z,99746.91
2022-12-24T01:15:16.385Z,99751.28
2022-12-24T01:17:43.638Z,99756.53
2022-12-24T01:20:15.682Z,99752.25
2022-12-24T01:22:42.956Z,99755.75
2022-12-24T01:25:10.726Z,99766.44
2022-12-24T01:27:38.078Z,99767.25
2022-12-24T01:30:07.068Z,99770.63
2022-12-24T01:32:34.539Z,99769.81
2022-12-24T01:35:01.700Z,99773.41
2022-12-24T01:37:28.880Z,99777.84
2022-12-24T01:40:16.010Z,99779.31
2022-12-24T01:43:04.362Z,99788.09
2022-12-24T01:45:42.159Z,99790.41
2022-12-24T01:48:44.305Z,99786.47
2022-12-24T01:51:35.663Z,99797.03
2022-12-24T01:54:08.017Z,99799.38
2022-12-24T01:56:37.056Z,99804.50
2022-12-24T01:59:08.599Z,99800.19
2022-12-24T02:01:36.108Z,99806.16
2022-12-24T02:04:13.906Z,99819.25
2022-12-24T02:06:41.119Z,99825.31
2022-12-24T02:09:08.392Z,99831.53
2022-12-24T02:11:38.173Z,99831.63
2022-12-24T02:14:05.447Z,99835.66
2022-12-24T02:16:59.629Z,99837.53
2022-12-24T02:19:58.116Z,99849.84
2022-12-24T02:22:41.732Z,99842.88
2022-12-24T02:25:25.166Z,99856.47
2022-12-24T02:28:14.261Z,99849.53
2022-12-24T02:30:52.135Z,99866.44
2022-12-24T02:33:45.737Z,99879.22
2022-12-24T02:36:20.462Z,99881.59
2022-12-24T02:39:00.995Z,99876.41
2022-12-24T02:41:59.949Z,99880.88
2022-12-24T02:44:29.105Z,99882.88
2022-12-24T02:46:57.922Z,99881.00
2022-12-24T02:49:25.591Z,99875.03
2022-12-24T02:51:52.931Z,99884.78
2022-12-24T02:54:20.163Z,99881.84
2022-12-24T02:56:54.204Z,99884.25
2022-12-24T02:59:27.489Z,99883.56
2022-12-24T03:02:33.388Z,99891.56
2022-12-24T03:05:20.714Z,99897.41
2022-12-24T03:08:17.223Z,99905.25
2022-12-24T03:10:58.166Z,99898.75
2022-12-24T03:13:26.569Z,99897.47
2022-12-24T03:15:53.895Z,99903.47
2022-12-24T03:18:24.835Z,99903.00
2022-12-24T03:21:01.530Z,99907.19
2022-12-24T03:23:28.798Z,99916.50
2022-12-24T03:25:56.005Z,99910.44
2022-12-24T03:28:26.407Z,99917.06
2022-12-24T03:30:53.801Z,99918.41
2022-12-24T03:33:21.260Z,99919.16
2022-12-24T03:35:50.117Z,99919.97
2022-12-24T03:38:17.315Z,99930.34
2022-12-24T03:40:44.503Z,99936.38
2022-12-24T03:43:11.663Z,99944.41
2022-12-24T03:45:39.221Z,99948.69
2022-12-24T03:48:06.497Z,99946.22
2022-12-24T03:50:33.949Z,99947.75
2022-12-24T03:53:01.101Z,99947.63
2022-12-24T03:55:28.283Z,99959.34
2022-12-24T03:57:55.428Z,99953.63
2022-12-24T04:00:22.641Z,99955.41
2022-12-24T04:02:49.969Z,99956.16
2022-12-24T04:05:19.404Z,99959.69
2022-12-24T04:07:46.679Z,99963.34
2022-12-24T04:10:14.809Z,99963.03
2022-12-24T04:12:41.999Z,99964.56
2022-12-24T04:15:10.154Z,99962.66
2022-12-24T04:17:37.612Z,99974.75
2022-12-24T04:20:05.354Z,99966.72
2022-12-24T04:22:32.616Z,99966.47
2022-12-24T04:24:59.946Z,99967.00
2022-12-24T04:27:30.552Z,99976.31
2022-12-24T04:29:58.881Z,99981.09
2022-12-24T04:32:29.447Z,100000.25
2022-12-24T04:34:56.744Z,100017.53
2022-12-24T04:37:23.900Z,100014.66
2022-12-24T04:39:51.097Z,100013.63
2022-12-24T04:42:18.266Z,100016.19
2022-12-24T04:44:45.454Z,100029.41
2022-12-24T04:47:12.725Z,100025.09
2022-12-24T04:49:39.919Z,100017.84
2022-12-24T04:52:07.168Z,100023.13
2022-12-24T04:54:34.410Z,100027.66
2022-12-24T04:57:01.629Z,100021.19
2022-12-24T04:59:29.001Z,100018.66
2022-12-24T05:01:56.403Z,100019.44
2022-12-24T05:04:23.702Z,100020.22
2022-12-24T05:06:50.865Z,100023.03
2022-12-24T05:09:18.107Z,100021.25
2022-12-24T05:11:45.256Z,100019.44
2022-12-24T05:14:12.594Z,100019.84
2022-12-24T05:16:39.826Z,100014.53
2022-12-24T05:19:07.156Z,100005.00
2022-12-24T05:21:34.365Z,100004.31
2022-12-24T05:24:20.077Z,100013.31
2022-12-24T05:26:50.087Z,100027.03
2022-12-24T05:29:17.243Z,100031.72
2022-12-24T05:31:45.203Z,100039.31
2022-12-24T05:34:13.795Z,100042.00
2022-12-24T05:36:41.159Z,100043.31
2022-12-24T05:39:15.422Z,100043.59
2022-12-24T05:41:43.412Z,100040.03
2022-12-24T05:44:10.706Z,100045.09
2022-12-24T05:46:37.945Z,100040.13
2022-12-24T05:49:05.222Z,100055.13
2022-12-24T05:51:32.409Z,100060.28
2022-12-24T05:53:59.628Z,100072.72
2022-12-24T05:56:26.931Z,100071.53
2022-12-24T05:58:54.850Z,100077.53
2022-12-24T06:01:22.937Z,100068.19
2022-12-24T06:03:50.746Z,100058.91
2022-12-24T06:06:23.539Z,100060.94
2022-12-24T06:08:51.639Z,100062.63
2022-12-24T06:11:24.782Z,100060.72
2022-12-24T06:13:53.156Z,100050.47
2022-12-24T06:16:21.137Z,100062.53
2022-12-24T06:18:48.403Z,100068.06
2022-12-24T06:21:16.146Z,100063.06
2022-12-24T06:23:44.559Z,100074.75
2022-12-24T06:26:17.493Z,100093.59
2022-12-24T06:28:45.177Z,100095.19
2022-12-24T06:31:17.934Z,100096.19
2022-12-24T06:33:45.450Z,100094.63
2022-12-24T06:36:21.416Z,100096.94
2022-12-24T06:38:49.088Z,100097.69
2022-12-24T06:41:17.398Z,100100.16
2022-12-24T06:43:46.101Z,100104.72
2022-12-24T06:46:13.760Z,100106.66
2022-12-24T06:48:41.280Z,100112.16
2022-12-24T06:51:08.902Z,100116.19
2022-12-24T06:53:36.602Z,100113.09
2022-12-24T06:56:12.529Z,100124.50
2022-12-24T06:58:41.193Z,100128.72
2022-12-24T07:01:11.071Z,100127.38
2022-12-24T07:03:38.709Z,100134.41
2022-12-24T07:06:06.364Z,100134.41
2022-12-24T07:08:36.285Z,100142.44
2022-12-24T07:11:03.713Z,100143.81
2022-12-24T07:13:33.077Z,100151.50
2022-12-24T07:16:05.118Z,100154.09
2022-12-24T07:18:32.917Z,100156.72
2022-12-24T07:21:01.112Z,100157.78
2022-12-24T07:23:28.927Z,100173.16
2022-12-24T07:25:56.174Z,100168.59
2022-12-24T07:28:27.765Z,100169.25
2022-12-24T07:30:56.483Z,100170.06
2022-12-24T07:33:24.680Z,100168.16
2022-12-24T07:36:02.619Z,100166.25
2022-12-24T07:38:30.181Z,100175.69
2022-12-24T07:40:58.348Z,100173.34
2022-12-24T07:43:26.362Z,100184.75
2022-12-24T07:45:59.388Z,100182.28
2022-12-24T07:48:28.020Z,100176.59
2022-12-24T07:50:57.835Z,100181.84
2022-12-24T07:53:26.501Z,100186.19
2022-12-24T07:55:54.040Z,100189.44
2022-12-24T07:58:21.793Z,100193.75
2022-12-24T08:00:49.156Z,100200.31
2022-12-24T08:03:21.722Z,100193.94
2022-12-24T08:05:49.667Z,100200.78
2022-12-24T08:08:16.853Z,100205.91
2022-12-24T08:10:45.348Z,100204.81
2022-12-24T08:13:13.079Z,100209.88
2022-12-24T08:15:40.339Z,100213.25
2022-12-24T08:18:12.618Z,100218.25
2022-12-24T08:20:40.903Z,100212.91
2022-12-24T08:23:08.985Z,100210.22
2022-12-24T08:25:36.381Z,100219.75
2022-12-24T08:28:04.205Z,100219.69
2022-12-24T08:30:31.614Z,100223.38
2022-12-24T08:32:58.846Z,100225.81
2022-12-24T08:35:26.048Z,100226.75
2022-12-24T08:37:53.208Z,100227.50
2022-12-24T08:40:20.576Z,100229.03
2022-12-24T08:42:47.790Z,100236.84
2022-12-24T08:45:15.052Z,100233.94
2022-12-24T08:47:43.501Z,100247.81
2022-12-24T08:50:11.595Z,100245.88
2022-12-24T08:52:38.782Z,100247.50
2022-12-24T08:55:06.522Z,100247.22
2022-12-24T08:57:37.202Z,100252.38
2022-12-24T09:00:06.180Z,100255.81
2022-12-24T09:02:33.511Z,100261.91
2022-12-24T09:05:09.147Z,100268.75
2022-12-24T09:07:38.159Z,100270.50
2022-12-24T09:10:06.383Z,100269.56
2022-12-24T09:12:34.022Z,100273.38
2022-12-24T09:15:04.220Z,100292.31
2022-12-24T09:17:31.810Z,100295.00
2022-12-24T09:19:58.973Z,100296.38
2022-12-24T09:22:28.462Z,100301.34
2022-12-24T09:24:56.000Z,100304.78
2022-12-24T09:27:23.480Z,100299.72
2022-12-24T09:29:53.045Z,100309.06
2022-12-24T09:32:20.300Z,100319.75
2022-12-24T09:34:47.549Z,100319.94
2022-12-24T09:37:16.369Z,100331.19
2022-12-24T09:39:43.980Z,100332.78
2022-12-24T09:42:27.124Z,100326.25
2022-12-24T09:45:08.330Z,100337.75
2022-12-24T09:47:55.809Z,100336.97
2022-12-24T09:50:32.569Z,100342.91
2022-12-24T09:53:03.228Z,100343.47
2022-12-24T09:55:41.067Z,100348.81
2022-12-24T09:58:10.845Z,100356.63
2022-12-24T10:00:38.579Z,100357.31
2022-12-24T10:03:18.880Z,100374.13
2022-12-24T10:05:52.725Z,100364.44
2022-12-24T10:08:47.781Z,100372.13
2022-12-24T10:11:28.013Z,100372.78
2022-12-24T10:14:11.578Z,100374.84
2022-12-24T10:16:49.682Z,100376.34
2022-12-24T10:19:38.858Z,100378.84
2022-12-24T10:22:08.296Z,100390.03
2022-12-24T10:24:39.334Z,100395.34
2022-12-24T10:27:16.001Z,100396.34
2022-12-24T10:29:48.068Z,100397.22
2022-12-24T10:32:31.696Z,100403.81
2022-12-24T10:35:02.243Z,100406.59
2022-12-24T10:37:30.809Z,100411.09
2022-12-24T10:39:59.449Z,100411.91
2022-12-24T10:42:36.926Z,100417.81
2022-12-24T10:45:06.864Z,100413.06
2022-12-24T10:47:38.228Z,100416.44
2022-12-24T10:50:23.989Z,100432.84
2022-12-24T10:52:52.091Z,100438.72
2022-12-24T10:55:28.228Z,100446.78
2022-12-24T10:58:04.548Z,100448.34
2022-12-24T11:00:36.185Z,100444.56
2022-12-24T11:03:12.992Z,100446.63
2022-12-24T11:05:45.779Z,100447.25
2022-12-24T11:08:12.969Z,100442.56
2022-12-24T11:10:45.553Z,100445.47
2022-12-24T11:13:38.549Z,100449.53
2022-12-24T11:16:10.358Z,100445.41
2022-12-24T11:18:50.444Z,100443.75
2022-12-24T11:21:36.438Z,100443.16
2022-12-24T11:24:14.160Z,100453.81
2022-12-24T11:26:42.956Z,100451.41
2022-12-24T11:29:21.586Z,100452.13
2022-12-24T11:31:49.513Z,100459.69
2022-12-24T11:34:32.928Z,100454.22
2022-12-24T11:37:21.602Z,100458.22
2022-12-24T11:39:58.402Z,100461.75
2022-12-24T11:42:40.814Z,100463.25
2022-12-24T11:45:26.126Z,100461.28
2022-12-24T11:47:54.161Z,100466.44
2022-12-24T11:50:35.657Z,100464.63
2022-12-24T11:53:17.736Z,100465.78
2022-12-24T11:55:55.163Z,100471.28
2022-12-24T11:58:52.722Z,100480.22
2022-12-24T12:01:31.068Z,100475.91
2022-12-24T12:04:19.174Z,100475.97
2022-12-24T12:06:52.900Z,100475.97
2022-12-24T12:09:31.395Z,100466.94
2022-12-24T12:12:07.080Z,100470.53
2022-12-24T12:14:48.701Z,100484.41
2022-12-24T12:17:41.317Z,100484.56
2022-12-24T12:20:34.163Z,100485.63
2022-12-24T12:23:41.374Z,100477.78
2022-12-24T12:26:19.030Z,100485.47
2022-12-24T12:29:24.382Z,100492.22
2022-12-24T12:31:59.506Z,100496.47
2022-12-24T12:34:34.232Z,100496.16
2022-12-24T12:37:24.943Z,100499.34
2022-12-24T12:39:52.196Z,100507.25
2022-12-24T12:42:34.457Z,100503.88
2022-12-24T12:45:49.780Z,100506.59
2022-12-24T12:48:35.322Z,100511.00
2022-12-24T12:51:26.102Z,100510.03
2022-12-24T12:57:42.486Z,100513.47
2022-12-24T13:00:12.723Z,100517.53
2022-12-24T13:03:07.586Z,100518.34
2022-12-24T13:06:02.124Z,100523.88
2022-12-24T13:08:41.487Z,100521.50
2022-12-24T13:11:40.380Z,100516.06
2022-12-24T13:14:46.330Z,100527.63
2022-12-24T13:17:54.575Z,100527.44
2022-12-24T13:24:16.514Z,100534.38
2022-12-24T13:26:56.675Z,100529.66
2022-12-24T13:30:15.761Z,100530.56
2022-12-24T13:32:52.417Z,100537.06
2022-12-24T13:35:19.845Z,100551.88
2022-12-24T13:38:17.426Z,100543.25
2022-12-24T13:40:44.985Z,100563.03
2022-12-24T13:44:02.459Z,100570.97
2022-12-24T13:46:50.083Z,100575.63
2022-12-24T13:49:21.220Z,100584.66
2022-12-24T13:51:52.559Z,100583.97
2022-12-24T14:01:57.459Z,100595.94
2022-12-24T14:08:29.169Z,100605.09
2022-12-24T14:11:22.875Z,100610.34
2022-12-24T14:13:55.436Z,100612.16
2022-12-24T14:16:25.128Z,100608.81
2022-12-24T14:22:45.646Z,100607.41
2022-12-24T14:25:21.506Z,100605.59
2022-12-24T14:27:54.957Z,100609.22
2022-12-24T14:30:27.585Z,100616.28
2022-12-24T14:35:40.457Z,100627.94
2022-12-24T14:38:14.116Z,100621.03
2022-12-24T14:41:12.083Z,100625.50
2022-12-24T14:44:20.606Z,100636.22
2022-12-24T14:46:58.868Z,100634.50
2022-12-24T14:49:59.266Z,100642.44
2022-12-24T14:53:03.372Z,100654.88
2022-12-24T14:55:36.031Z,100650.72
2022-12-24T14:58:26.657Z,100660.34
2022-12-24T15:01:02.341Z,100664.06
2022-12-24T15:03:39.888Z,100672.00
2022-12-24T15:06:17.643Z,100672.06
2022-12-24T15:08:47.625Z,100684.44
2022-12-24T15:11:21.236Z,100673.16
2022-12-24T15:13:56.228Z,100679.34
2022-12-24T15:20:07.461Z,100690.06
2022-12-24T15:27:53.296Z,100691.06
2022-12-24T15:30:30.593Z,100703.31
2022-12-24T15:42:18.954Z,100719.72
2022-12-24T15:45:08.307Z,100717.88
2022-12-24T15:47:48.489Z,100723.97
2022-12-24T15:54:03.119Z,100725.91
2022-12-24T15:56:33.295Z,100732.19
2022-12-24T16:10:28.337Z,100750.91
2022-12-24T16:16:46.965Z,100753.31
2022-12-24T16:19:23.263Z,100753.19
2022-12-24T16:32:34.035Z,100753.63
2022-12-24T16:35:03.245Z,100760.69
2022-12-24T16:37:30.600Z,100758.84
2022-12-24T16:39:59.329Z,100767.72
2022-12-24T16:42:45.755Z,100765.22
2022-12-24T16:45:13.136Z,100777.63
2022-12-24T16:47:43.377Z,100771.75
2022-12-24T16:50:16.813Z,100774.28
2022-12-24T16:52:44.602Z,100775.47
2022-12-24T16:55:17.920Z,100778.22
2022-12-24T16:57:51.096Z,100786.03
2022-12-24T17:00:21.574Z,100780.91
2022-12-24T17:02:49.757Z,100796.63
2022-12-24T17:05:17.490Z,100805.41
2022-12-24T17:07:50.354Z,100806.44
2022-12-24T17:10:17.787Z,100807.97
2022-12-24T17:12:45.053Z,100801.75
2022-12-24T17:15:12.703Z,100805.13
2022-12-24T17:17:39.988Z,100799.06
2022-12-24T17:20:09.517Z,100805.22
2022-12-24T17:22:39.488Z,100804.16
2022-12-24T17:25:07.672Z,100804.94
2022-12-24T17:27:34.904Z,100812.69
2022-12-24T17:30:02.484Z,100819.53
2022-12-24T17:32:29.772Z,100813.38
2022-12-24T17:41:56.214Z,100833.16
2022-12-24T17:44:23.876Z,100831.91
2022-12-24T17:46:51.149Z,100834.31
2022-12-24T17:49:18.423Z,100832.41
2022-12-24T17:51:46.687Z,100835.88
2022-12-24T17:54:14.315Z,100836.28
2022-12-24T17:56:41.542Z,100837.97
2022-12-24T17:59:08.890Z,100843.16
2022-12-24T18:01:36.240Z,100851.81
2022-12-24T18:04:04.036Z,100858.81
2022-12-24T18:06:31.524Z,100865.72
2022-12-24T18:08:58.886Z,100869.19
2022-12-24T18:11:29.180Z,100874.50
2022-12-24T18:13:57.447Z,100879.75
2022-12-24T18:16:25.604Z,100876.22
2022-12-24T18:18:53.047Z,100883.16
2022-12-24T18:21:23.483Z,100882.22
2022-12-24T18:23:52.308Z,100882.16
2022-12-24T18:26:20.280Z,100885.16
2022-12-24T18:28:47.773Z,100876.25
2022-12-24T18:31:18.108Z,100887.63
2022-12-24T18:33:47.524Z,100884.91
2022-12-24T18:36:15.119Z,100882.38
2022-12-24T18:38:42.318Z,100887.78
2022-12-24T18:41:15.838Z,100892.22
2022-12-24T18:43:43.133Z,100896.22
2022-12-24T18:46:15.900Z,100897.25
2022-12-24T18:48:43.318Z,100905.22
2022-12-24T18:51:10.680Z,100908.16
2022-12-24T18:53:38.389Z,100910.06
2022-12-24T18:56:16.071Z,100906.88
2022-12-24T18:58:43.829Z,100907.78
2022-12-24T19:01:16.671Z,100910.38
2022-12-24T19:03:44.041Z,100908.75
2022-12-24T19:06:11.338Z,100918.31
2022-12-24T19:11:26.581Z,100917.47
2022-12-24T19:13:53.914Z,100918.31
2022-12-24T19:16:21.466Z,100915.63
2022-12-24T19:18:49.004Z,100925.06
2022-12-24T19:21:17.673Z,100927.56
2022-12-24T19:23:45.355Z,100930.19
2022-12-24T19:26:14.293Z,100924.88
2022-12-24T19:28:41.497Z,100931.91
2022-12-24T19:31:13.316Z,100923.31
2022-12-24T19:33:43.676Z,100933.06
2022-12-24T19:36:15.076Z,100921.84
2022-12-24T19:38:42.801Z,100931.44
2022-12-24T19:41:15.750Z,100937.44
2022-12-24T19:43:48.028Z,100939.94
2022-12-24T19:46:19.860Z,100941.66
2022-12-24T19:48:52.403Z,100946.00
2022-12-24T19:51:21.347Z,100948.66
2022-12-24T19:53:49.215Z,100956.47
2022-12-24T19:56:18.113Z,100958.22
2022-12-24T19:58:45.785Z,100957.19
2022-12-24T20:01:16.203Z,100948.34
2022-12-24T20:03:44.586Z,100950.91
2022-12-24T20:06:12.748Z,100961.41
2022-12-24T20:08:40.321Z,100951.69
2022-12-24T20:11:15.433Z,100950.59
2022-12-24T20:13:43.022Z,100954.06
2022-12-24T20:16:15.771Z,100968.09
2022-12-24T20:18:43.027Z,100968.09
2022-12-24T20:21:11.996Z,100961.22
2022-12-24T20:23:40.352Z,100966.59
2022-12-24T20:26:10.401Z,100966.84
2022-12-24T20:28:37.731Z,100966.19
2022-12-24T20:31:17.224Z,100963.72
2022-12-24T20:33:45.077Z,100963.97
2022-12-24T20:36:13.982Z,100961.38
2022-12-24T20:38:41.356Z,100957.88
2022-12-24T20:41:12.292Z,100965.69
2022-12-24T20:43:47.396Z,100975.22
2022-12-24T20:46:16.553Z,100975.19
2022-12-24T20:48:45.166Z,100976.91
2022-12-24T20:51:23.687Z,100971.53
2022-12-24T20:53:55.194Z,100980.28
2022-12-24T20:56:37.804Z,100981.94
2022-12-24T20:59:05.323Z,100982.81
2022-12-24T21:01:34.311Z,100989.81
2022-12-24T21:04:04.848Z,100989.69
2022-12-24T21:06:32.863Z,100981.88
2022-12-24T21:09:00.762Z,100995.91
2022-12-24T21:11:46.710Z,100991.53
2022-12-24T21:14:16.573Z,100996.66
2022-12-24T21:16:44.775Z,100995.75
2022-12-24T21:19:18.658Z,101007.03
2022-12-24T21:21:47.201Z,101003.56
2022-12-24T21:24:14.927Z,101004.41
2022-12-24T21:26:43.586Z,101001.72
2022-12-24T21:29:11.169Z,101005.28
2022-12-24T21:31:38.596Z,101008.00
2022-12-24T21:34:06.088Z,101013.19
2022-12-24T21:36:33.458Z,101021.06
2022-12-24T21:39:00.628Z,101022.81
2022-12-24T21:41:28.075Z,101029.78
2022-12-24T21:43:55.491Z,101029.88
2022-12-24T21:46:25.268Z,101032.47
2022-12-24T21:49:13.384Z,101028.00
2022-12-24T21:51:41.407Z,101036.78
2022-12-24T21:54:23.932Z,101040.38
2022-12-24T21:57:11.137Z,101043.00
2022-12-24T21:59:38.583Z,101053.56
2022-12-24T22:02:05.920Z,101052.75
2022-12-24T22:04:33.557Z,101051.00
2022-12-24T22:07:19.405Z,101056.19
2022-12-24T22:10:05.406Z,101052.63
2022-12-24T22:12:33.623Z,101052.63
2022-12-24T22:15:00.842Z,101067.53
2022-12-24T22:17:30.849Z,101063.13
2022-12-24T22:19:58.127Z,101068.25
2022-12-24T22:22:26.884Z,101068.25
2022-12-24T22:24:54.173Z,101065.72
2022-12-24T22:27:21.584Z,101068.47
2022-12-24T22:29:49.240Z,101071.91
2022-12-24T22:32:16.507Z,101061.66
2022-12-24T22:34:43.739Z,101074.56
2022-12-24T22:37:11.102Z,101078.16
2022-12-24T22:39:39.126Z,101082.66
2022-12-24T22:42:06.557Z,101079.50
2022-12-24T22:44:33.876Z,101083.19
2022-12-24T22:47:01.180Z,101083.41
2022-12-24T22:49:28.482Z,101083.44
2022-12-24T22:51:58.007Z,101092.31
2022-12-24T22:54:25.392Z,101103.69
2022-12-24T22:56:52.659Z,101102.09
2022-12-24T22:59:20.145Z,101102.97
2022-12-24T23:01:48.398Z,101104.03
2022-12-24T23:04:15.973Z,101104.16
2022-12-24T23:06:44.562Z,101106.75
2022-12-24T23:09:13.821Z,101107.75
2022-12-24T23:11:41.605Z,101113.78
2022-12-24T23:14:35.240Z,101112.13
2022-12-24T23:17:02.781Z,101114.00
2022-12-24T23:19:32.122Z,101114.84
2022-12-24T23:22:47.586Z,101114.00
2022-12-24T23:25:22.211Z,101120.25
2022-12-24T23:28:11.102Z,101126.38
2022-12-24T23:31:00.194Z,101118.53
2022-12-24T23:33:28.290Z,101115.13
2022-12-24T23:35:55.514Z,101099.47
2022-12-24T23:38:24.827Z,101110.00
2022-12-24T23:40:55.831Z,101105.69
2022-12-24T23:43:23.089Z,101103.19
2022-12-24T23:45:51.126Z,101100.56
2022-12-24T23:48:18.712Z,101093.63
2022-12-24T23:50:46.599Z,101098.91
2022-12-24T23:53:14.626Z,101101.53
2022-12-24T23:55:42.589Z,101117.25
2022-12-24T23:58:14.424Z,101115.59
